Fabius, New York
Current Conditions -  °F | °C
As of 12:54 PM on Thursday 27 Nov 2014 (Local Time) from KSYR Reporting Station
Light Snow Light Snow  
Wind Chill: 24°   Ceiling: 3000
Heat Index: 30°   Visibility: 3mi
Dew Point: 25°   Wind: 6mph
Humidity: 82%   Direction: 290°WNW
Pressure: 30.02"   Gusts: NA
Location:  42.84°N, 75.99°W
Report Text: KSYR 271754Z 29005KT 3SM -SN SCT011 BKN030 OVC037 M01/M04 A3002 RMK AO2 VIS 1 3/4 NW CIG 018 NW SLP167 4/004 933002 P0001 60003 T10111039 11011 21022 58007
Loading
Personal Weather Stations






























Interactive Weather Map New forecast layout! Learn more

10-Day Weather Forecast

Advertisements
Track Severe Weather on mobile